Time;durP1;ratioP1;P1;durP2;ratioP2;P2;SDS_P1;SDS_P2;PMS_P1;PMS_P2;Temp;Humidity;BMP_temperature;BMP_pressure;BME280_temperature;BME280_humidity;BME280_pressure;Samples;Min_cycle;Max_cycle;Signal;HPM_P1;HPM_P2
2022/05/10 00:00:50;;;;;;;10.82;2.40;;;6.60;99.90;;;;;;4876767;29;20065;-79
2022/05/10 00:03:19;;;;;;;8.70;3.20;;;6.60;99.90;;;;;;4876660;29;20048;-81
2022/05/10 00:05:47;;;;;;;7.72;2.95;;;6.60;99.90;;;;;;4877698;29;20049;-81
2022/05/10 00:08:16;;;;;;;26.27;4.90;;;6.50;99.90;;;;;;4876607;29;20045;-80
2022/05/10 00:10:45;;;;;;;16.60;3.40;;;6.60;99.90;;;;;;4877523;29;20045;-81
2022/05/10 00:13:12;;;;;;;6.53;2.90;;;6.50;99.90;;;;;;4875167;29;20110;-81
2022/05/10 00:15:41;;;;;;;8.55;2.67;;;6.50;99.90;;;;;;4877661;29;20056;-80
2022/05/10 00:18:09;;;;;;;8.63;2.67;;;6.50;99.90;;;;;;4876068;29;20049;-80
2022/05/10 00:20:38;;;;;;;7.28;2.53;;;6.40;99.90;;;;;;4878077;29;20109;-81
2022/05/10 00:23:05;;;;;;;25.67;14.75;;;6.40;99.90;;;;;;4875048;29;20052;-80
2022/05/10 00:25:33;;;;;;;5.05;3.00;;;6.40;99.90;;;;;;4875781;29;20582;-81
2022/05/10 00:28:00;;;;;;;15.25;5.40;;;6.40;99.90;;;;;;4877403;29;20590;-80
2022/05/10 00:30:28;;;;;;;10.23;3.20;;;6.40;99.90;;;;;;4875154;29;20135;-78
2022/05/10 00:32:56;;;;;;;5.88;2.30;;;6.40;99.90;;;;;;4871671;29;20045;-80
2022/05/10 00:35:27;;;;;;;10.50;2.75;;;6.40;99.90;;;;;;4860292;29;20104;-79
2022/05/10 00:37:59;;;;;;;5.75;2.53;;;6.30;99.90;;;;;;4870045;29;20056;-80
2022/05/10 00:40:28;;;;;;;3.67;2.33;;;6.30;99.90;;;;;;4876420;29;20116;-81
2022/05/10 00:42:59;;;;;;;6.80;2.53;;;6.30;99.90;;;;;;4881362;29;20064;-81
2022/05/10 00:45:33;;;;;;;7.70;3.50;;;6.30;99.90;;;;;;4867048;29;20058;-80
2022/05/10 00:48:07;;;;;;;10.52;3.90;;;6.30;99.90;;;;;;4859162;29;20087;-77
2022/05/10 00:50:38;;;;;;;19.63;4.78;;;6.30;99.90;;;;;;4861197;29;20053;-78
2022/05/10 00:53:12;;;;;;;29.83;6.00;;;6.20;99.90;;;;;;4845535;29;20545;-79
2022/05/10 00:55:45;;;;;;;23.85;4.85;;;6.10;99.90;;;;;;4880711;29;20482;-79
2022/05/10 00:58:26;;;;;;;25.13;5.82;;;6.10;99.90;;;;;;4879890;29;20463;-81
2022/05/10 01:00:56;;;;;;;19.65;5.63;;;6.00;99.90;;;;;;4881042;29;20064;-79
2022/05/10 01:03:29;;;;;;;18.02;4.07;;;6.10;99.90;;;;;;4879553;29;20590;-80
2022/05/10 01:06:04;;;;;;;8.75;3.75;;;6.00;99.90;;;;;;4880265;29;20097;-79
2022/05/10 01:08:40;;;;;;;15.02;3.78;;;6.00;99.90;;;;;;4881665;29;20048;-81
2022/05/10 01:11:15;;;;;;;14.35;3.30;;;6.00;99.90;;;;;;4881424;29;20129;-81
2022/05/10 01:13:48;;;;;;;12.50;4.07;;;6.00;99.90;;;;;;4880043;29;20068;-80
2022/05/10 01:16:17;;;;;;;10.77;3.78;;;6.00;99.90;;;;;;4880640;29;20061;-80
2022/05/10 01:18:44;;;;;;;9.35;3.10;;;6.10;99.90;;;;;;4882674;29;20131;-81
2022/05/10 01:21:24;;;;;;;12.15;3.17;;;6.00;99.90;;;;;;4883849;29;20061;-81
2022/05/10 01:24:17;;;;;;;13.10;3.17;;;6.00;99.90;;;;;;4880541;29;20049;-81
2022/05/10 01:26:57;;;;;;;8.50;2.92;;;6.00;99.90;;;;;;4870555;29;20045;-81
2022/05/10 01:29:30;;;;;;;8.15;3.28;;;6.00;99.90;;;;;;4881033;29;20049;-81
2022/05/10 01:34:52;;;;;;;9.38;2.75;;;6.00;99.90;;;;;;4860845;29;20409;-75
2022/05/10 01:37:24;;;;;;;4.55;2.15;;;6.00;99.90;;;;;;4879079;29;20545;-75
2022/05/10 01:39:59;;;;;;;9.50;2.90;;;6.00;99.90;;;;;;4877251;29;20056;-75
2022/05/10 01:42:33;;;;;;;6.65;3.28;;;6.00;99.90;;;;;;4876882;29;20059;-75
2022/05/10 01:45:06;;;;;;;5.70;2.55;;;6.00;99.90;;;;;;4879219;29;20052;-75
2022/05/10 01:47:35;;;;;;;;;;;5.90;99.90;;;;;;4878552;29;20113;-76
2022/05/10 01:50:06;;;;;;;6.43;2.28;;;5.90;99.90;;;;;;4878642;29;20026;-76
2022/05/10 01:52:40;;;;;;;4.50;2.17;;;5.90;99.90;;;;;;4876228;29;20063;-75
2022/05/10 01:55:25;;;;;;;11.30;3.28;;;5.90;99.90;;;;;;4878533;29;20109;-75
2022/05/10 01:57:54;;;;;;;3.83;2.42;;;5.90;99.90;;;;;;4877611;29;20472;-74
2022/05/10 02:00:25;;;;;;;9.43;2.85;;;5.90;99.90;;;;;;4877077;29;20114;-74
2022/05/10 02:03:00;;;;;;;6.75;2.17;;;5.90;99.90;;;;;;4866891;29;20483;-75
2022/05/10 02:05:32;;;;;;;12.27;2.92;;;5.90;99.90;;;;;;4877826;29;20053;-74
2022/05/10 02:08:06;;;;;;;6.47;2.60;;;5.80;99.90;;;;;;4877236;29;20116;-75
2022/05/10 02:10:38;;;;;;;7.60;2.63;;;5.90;99.90;;;;;;4877763;29;20059;-74
2022/05/10 02:13:12;;;;;;;6.40;2.78;;;5.90;99.90;;;;;;4878556;29;20060;-75
2022/05/10 02:15:46;;;;;;;8.38;2.70;;;5.90;99.90;;;;;;4877943;29;20092;-75
2022/05/10 02:18:21;;;;;;;5.00;2.55;;;5.90;99.90;;;;;;4878722;29;20064;-74
2022/05/10 02:20:53;;;;;;;8.82;2.92;;;5.90;99.90;;;;;;4876580;29;20052;-74
2022/05/10 02:23:26;;;;;;;7.60;3.10;;;5.90;99.90;;;;;;4878107;29;20068;-76
2022/05/10 02:25:58;;;;;;;9.60;3.28;;;5.90;99.90;;;;;;4862768;29;20044;-76
2022/05/10 02:28:36;;;;;;;9.02;2.78;;;5.90;99.90;;;;;;4875913;29;20053;-75
2022/05/10 02:31:09;;;;;;;12.02;3.25;;;6.00;99.90;;;;;;4861671;29;20053;-75
2022/05/10 02:33:35;;;;;;;11.73;2.92;;;6.00;99.90;;;;;;4878402;29;20093;-75
2022/05/10 02:36:03;;;;;;;13.73;4.28;;;6.00;99.90;;;;;;4876664;29;20549;-75
2022/05/10 02:38:35;;;;;;;9.48;3.10;;;6.00;99.90;;;;;;4873478;29;20140;-76
2022/05/10 02:41:08;;;;;;;7.38;3.03;;;6.00;99.90;;;;;;4876839;29;20121;-75
2022/05/10 02:43:40;;;;;;;9.48;2.90;;;6.00;99.90;;;;;;4878303;29;20061;-76
2022/05/10 02:46:11;;;;;;;17.67;3.72;;;6.00;99.90;;;;;;4876009;29;20077;-76
2022/05/10 02:48:39;;;;;;;6.88;3.13;;;6.00;99.90;;;;;;4878708;29;20057;-75
2022/05/10 02:51:07;;;;;;;15.30;3.20;;;6.10;99.90;;;;;;4860972;29;20609;-75
2022/05/10 02:53:35;;;;;;;9.68;4.10;;;6.10;99.90;;;;;;4878196;29;20049;-75
2022/05/10 02:56:04;;;;;;;10.30;3.45;;;6.20;99.90;;;;;;4872990;29;20048;-75
2022/05/10 02:58:36;;;;;;;6.13;2.63;;;6.20;99.90;;;;;;4859809;29;20140;-75
2022/05/10 03:01:10;;;;;;;7.93;2.45;;;6.20;99.90;;;;;;4842784;29;20053;-74
2022/05/10 03:03:39;;;;;;;8.75;2.60;;;6.20;99.90;;;;;;4865603;29;20514;-75
2022/05/10 03:06:06;;;;;;;8.82;2.80;;;6.20;99.90;;;;;;4858860;29;20392;-75
2022/05/10 03:08:34;;;;;;;5.95;3.03;;;6.20;99.90;;;;;;4877257;29;20135;-75
2022/05/10 03:11:01;;;;;;;10.55;3.13;;;6.20;99.90;;;;;;4876591;29;20152;-75
2022/05/10 03:13:28;;;;;;;5.05;2.33;;;6.30;99.90;;;;;;4875547;29;20045;-74
2022/05/10 03:15:55;;;;;;;12.02;2.95;;;6.30;99.90;;;;;;4878154;29;20081;-74
2022/05/10 03:18:23;;;;;;;8.57;2.75;;;6.30;99.90;;;;;;4875949;29;20591;-74
2022/05/10 03:20:52;;;;;;;7.82;2.58;;;6.30;99.90;;;;;;4876780;29;20057;-74
2022/05/10 03:23:19;;;;;;;6.57;2.47;;;6.40;99.90;;;;;;4877402;29;20076;-75
2022/05/10 03:25:46;;;;;;;7.85;2.45;;;6.40;99.90;;;;;;4877928;29;20097;-74
2022/05/10 03:28:14;;;;;;;5.10;1.98;;;6.50;99.90;;;;;;4877975;29;20137;-74
2022/05/10 03:30:41;;;;;;;9.52;2.97;;;6.50;99.90;;;;;;4877924;29;20061;-74
2022/05/10 03:33:09;;;;;;;4.63;2.28;;;6.60;99.90;;;;;;4859745;29;20095;-75
2022/05/10 03:35:36;;;;;;;7.85;2.72;;;6.60;99.90;;;;;;4875980;29;20049;-75
2022/05/10 03:38:05;;;;;;;11.85;3.03;;;6.60;99.90;;;;;;4876340;29;20068;-75
2022/05/10 03:40:32;;;;;;;2.95;1.85;;;6.70;99.90;;;;;;4874640;29;20657;-75
2022/05/10 03:43:00;;;;;;;9.05;3.33;;;6.80;99.90;;;;;;4865032;29;20085;-76
2022/05/10 03:45:29;;;;;;;6.65;1.88;;;6.80;99.90;;;;;;4868964;29;20117;-75
2022/05/10 03:47:57;;;;;;;8.27;2.50;;;6.90;99.90;;;;;;4858619;29;20053;-75
2022/05/10 03:50:26;;;;;;;12.00;3.65;;;6.90;99.90;;;;;;4874544;29;20052;-75
2022/05/10 03:52:54;;;;;;;4.63;1.50;;;7.00;99.90;;;;;;4877056;29;20435;-75
2022/05/10 03:55:24;;;;;;;3.47;1.92;;;7.10;99.90;;;;;;4860342;29;20599;-75
2022/05/10 03:57:52;;;;;;;3.38;1.80;;;7.20;99.90;;;;;;4876827;29;20080;-74
2022/05/10 04:00:22;;;;;;;3.80;1.63;;;7.30;99.90;;;;;;4859365;29;20057;-75
2022/05/10 04:02:51;;;;;;;8.02;2.55;;;7.30;99.90;;;;;;4875035;29;20064;-75
2022/05/10 04:05:19;;;;;;;4.50;1.70;;;7.40;99.90;;;;;;4875204;29;20041;-75
2022/05/10 04:07:48;;;;;;;3.90;1.52;;;7.50;99.90;;;;;;4859248;29;20057;-75
2022/05/10 04:10:17;;;;;;;6.68;1.58;;;7.50;99.90;;;;;;4876003;29;20052;-76
2022/05/10 04:12:52;;;;;;;7.10;2.03;;;7.60;99.90;;;;;;4859915;29;20099;-77
2022/05/10 04:15:21;;;;;;;6.53;2.20;;;7.60;99.90;;;;;;4880725;29;20068;-83
2022/05/10 04:17:48;;;;;;;2.78;1.63;;;7.70;99.90;;;;;;4879689;29;20545;-79
2022/05/10 04:20:16;;;;;;;6.53;1.42;;;7.80;99.90;;;;;;4901229;29;20059;-85
2022/05/10 04:22:45;;;;;;;5.15;1.40;;;7.90;99.90;;;;;;4888245;29;20053;-83
2022/05/10 04:25:13;;;;;;;6.32;2.17;;;8.00;99.90;;;;;;4881155;29;20053;-82
2022/05/10 04:27:40;;;;;;;5.65;1.45;;;8.10;99.90;;;;;;4881681;29;20139;-81
2022/05/10 04:30:10;;;;;;;2.47;1.23;;;8.10;99.90;;;;;;4881876;29;20049;-81
2022/05/10 04:32:38;;;;;;;4.57;0.95;;;8.10;99.90;;;;;;4880900;29;20096;-81
2022/05/10 04:35:06;;;;;;;1.55;1.30;;;8.20;99.90;;;;;;4878796;29;20053;-81
2022/05/10 04:37:34;;;;;;;8.65;1.50;;;8.20;99.90;;;;;;4880877;29;20060;-80
2022/05/10 04:42:47;;;;;;;4.35;1.45;;;8.20;99.90;;;;;;4881603;29;20053;-82
2022/05/10 04:45:16;;;;;;;4.57;1.13;;;8.20;99.90;;;;;;4880159;29;20092;-82
2022/05/10 04:47:43;;;;;;;2.90;1.20;;;8.30;99.90;;;;;;4881293;29;20117;-82
2022/05/10 04:50:11;;;;;;;2.85;1.23;;;8.30;99.90;;;;;;4884439;29;20057;-82
2022/05/10 04:52:39;;;;;;;3.00;1.73;;;8.40;99.90;;;;;;4882301;29;20078;-80
2022/05/10 04:55:09;;;;;;;5.53;1.45;;;8.40;99.90;;;;;;4882093;29;20108;-81
2022/05/10 04:57:36;;;;;;;4.13;1.40;;;8.50;99.90;;;;;;4884961;29;20057;-83
2022/05/10 05:00:08;;;;;;;2.50;1.48;;;8.50;99.90;;;;;;4866199;29;20164;-79
2022/05/10 05:02:37;;;;;;;4.13;1.55;;;8.50;99.90;;;;;;4881647;29;20471;-81
2022/05/10 05:05:06;;;;;;;3.80;1.30;;;8.60;99.90;;;;;;4881457;29;20049;-82
2022/05/10 05:07:34;;;;;;;3.60;1.42;;;8.70;99.90;;;;;;4884586;29;20045;-85
2022/05/10 05:10:02;;;;;;;7.47;1.90;;;8.70;99.90;;;;;;4872245;29;20060;-84
2022/05/10 05:12:32;;;;;;;2.97;1.42;;;8.80;99.90;;;;;;4882984;29;20052;-84
2022/05/10 05:15:00;;;;;;;4.50;1.67;;;8.90;99.90;;;;;;4883729;29;20045;-81
2022/05/10 05:17:30;;;;;;;8.13;1.90;;;9.00;99.90;;;;;;4882282;29;20057;-81
2022/05/10 05:19:59;;;;;;;4.35;1.90;;;9.00;99.90;;;;;;4881682;29;20136;-82
2022/05/10 05:22:27;;;;;;;4.55;2.10;;;9.20;99.90;;;;;;4875429;29;20057;-76
2022/05/10 05:24:54;;;;;;;10.75;2.92;;;9.60;99.90;;;;;;4872408;29;20052;-77
2022/05/10 05:27:22;;;;;;;2.20;1.45;;;10.10;99.90;;;;;;4877494;29;20073;-77
2022/05/10 05:29:49;;;;;;;3.83;1.15;;;10.70;97.90;;;;;;4876433;29;20049;-76
2022/05/10 05:32:22;;;;;;;10.68;7.07;;;11.10;92.90;;;;;;4878584;29;20057;-76
2022/05/10 05:34:51;;;;;;;3.33;1.83;;;11.60;91.50;;;;;;4871758;29;20045;-77
2022/05/10 05:37:35;;;;;;;3.38;1.13;;;11.90;85.80;;;;;;4878982;29;20545;-75
2022/05/10 05:40:08;;;;;;;2.35;1.67;;;12.30;82.50;;;;;;4878614;29;20060;-76
2022/05/10 05:42:35;;;;;;;;;;;12.70;79.40;;;;;;4880051;29;20063;-76
2022/05/10 05:45:03;;;;;;;4.88;1.48;;;13.20;78.50;;;;;;4862647;29;20372;-78
2022/05/10 05:47:32;;;;;;;3.95;1.50;;;13.70;74.60;;;;;;4878703;29;20422;-83
2022/05/10 05:50:05;;;;;;;6.18;1.52;;;14.20;70.00;;;;;;4879566;29;20049;-82
2022/05/10 05:52:37;;;;;;;3.38;1.80;;;14.60;68.20;;;;;;4882762;29;20075;-83
2022/05/10 05:55:07;;;;;;;5.67;1.33;;;14.80;64.30;;;;;;4882584;29;20057;-84
2022/05/10 05:57:34;;;;;;;3.38;1.35;;;15.10;62.60;;;;;;4878618;29;20320;-77
2022/05/10 06:00:07;;;;;;;4.95;1.50;;;15.30;61.90;;;;;;4877845;29;20057;-80
2022/05/10 06:02:39;;;;;;;2.28;1.17;;;15.60;61.30;;;;;;4875854;29;20076;-77
2022/05/10 06:05:08;;;;;;;2.28;1.88;;;16.00;57.50;;;;;;4876957;29;20516;-75
2022/05/10 06:07:37;;;;;;;5.28;1.83;;;16.20;57.50;;;;;;4878940;29;20053;-76
2022/05/10 06:10:05;;;;;;;4.15;1.80;;;16.40;57.60;;;;;;4878930;29;20410;-77
2022/05/10 06:12:32;;;;;;;3.75;1.55;;;16.80;56.30;;;;;;4877252;29;20049;-75
2022/05/10 06:15:08;;;;;;;3.22;1.95;;;17.10;56.40;;;;;;4877466;29;20056;-75
2022/05/10 06:17:36;;;;;;;3.45;2.05;;;17.40;54.50;;;;;;4877239;29;20541;-79
2022/05/10 06:20:06;;;;;;;6.80;1.80;;;17.70;53.40;;;;;;4878552;29;20522;-79
2022/05/10 06:22:34;;;;;;;2.28;1.20;;;17.90;52.70;;;;;;4877280;29;20514;-82
2022/05/10 06:25:12;;;;;;;6.15;1.55;;;18.30;51.10;;;;;;4875928;29;20049;-80
2022/05/10 06:27:39;;;;;;;1.92;1.33;;;18.60;50.40;;;;;;4879184;29;20060;-86
2022/05/10 06:30:08;;;;;;;2.80;1.75;;;18.90;50.10;;;;;;4881999;29;20072;-83
2022/05/10 06:32:35;;;;;;;7.43;4.40;;;19.30;48.90;;;;;;4878483;29;20431;-82
2022/05/10 06:35:03;;;;;;;2.80;1.70;;;19.70;48.30;;;;;;4883539;29;20514;-86
2022/05/10 06:40:18;;;;;;;3.95;1.35;;;20.00;47.80;;;;;;4882160;29;20057;-86
2022/05/10 06:42:45;;;;;;;3.50;1.58;;;19.70;47.30;;;;;;4879748;29;20053;-78
2022/05/10 06:45:15;;;;;;;3.97;1.83;;;19.60;47.20;;;;;;4878326;29;20057;-77
2022/05/10 06:47:46;;;;;;;2.70;1.20;;;20.00;47.30;;;;;;4883164;29;20100;-76
2022/05/10 06:50:17;;;;;;;1.30;1.20;;;20.40;45.60;;;;;;4888031;29;20778;-76
2022/05/10 06:52:44;;;;;;;5.63;1.50;;;20.40;45.20;;;;;;4876853;29;20053;-76
2022/05/10 06:55:12;;;;;;;5.78;3.55;;;20.50;46.20;;;;;;4878650;29;20410;-77
2022/05/10 06:57:41;;;;;;;3.30;1.35;;;20.80;44.90;;;;;;4876706;29;20049;-78
2022/05/10 07:00:11;;;;;;;1.52;1.08;;;21.10;44.30;;;;;;4874956;29;20045;-86
2022/05/10 07:02:39;;;;;;;1.90;1.77;;;21.20;43.40;;;;;;4873985;29;20049;-84
2022/05/10 07:05:08;;;;;;;6.75;1.50;;;21.30;43.20;;;;;;4870841;29;20069;-84
2022/05/10 07:07:36;;;;;;;2.80;1.35;;;21.40;43.60;;;;;;4868528;29;20144;-82
2022/05/10 07:10:04;;;;;;;4.10;1.50;;;21.50;43.10;;;;;;4861001;29;20593;-80
2022/05/10 07:12:31;;;;;;;1.42;1.13;;;21.80;42.90;;;;;;4859450;29;20081;-83
2022/05/10 07:15:06;;;;;;;1.63;1.13;;;22.20;43.00;;;;;;4875480;29;20149;-83
2022/05/10 07:17:38;;;;;;;1.80;1.25;;;22.40;41.90;;;;;;4858636;29;20050;-82
2022/05/10 07:20:07;;;;;;;5.13;1.42;;;22.60;41.20;;;;;;4877473;29;20084;-81
2022/05/10 07:22:38;;;;;;;6.30;1.45;;;22.90;40.60;;;;;;4877834;29;20045;-78
2022/05/10 07:25:06;;;;;;;1.90;1.10;;;23.10;41.10;;;;;;4879296;29;20064;-77
2022/05/10 07:27:33;;;;;;;2.10;0.95;;;23.40;40.00;;;;;;4886681;29;20562;-78
2022/05/10 07:30:02;;;;;;;5.00;1.33;;;23.80;39.60;;;;;;4883766;29;20049;-75
2022/05/10 07:32:30;;;;;;;8.70;4.13;;;24.00;39.30;;;;;;4878627;29;20096;-79
2022/05/10 07:35:01;;;;;;;3.60;1.40;;;24.30;39.30;;;;;;4883746;29;20059;-76
2022/05/10 07:37:33;;;;;;;1.88;1.38;;;24.10;38.90;;;;;;4877533;29;20517;-76
2022/05/10 07:40:01;;;;;;;8.45;1.50;;;23.80;40.00;;;;;;4886536;29;20097;-77
2022/05/10 07:42:28;;;;;;;4.80;2.88;;;23.60;39.60;;;;;;4881851;29;20037;-76
2022/05/10 07:44:56;;;;;;;4.32;1.50;;;23.30;39.90;;;;;;4886689;29;20057;-81
2022/05/10 07:47:25;;;;;;;4.63;1.40;;;22.90;41.30;;;;;;4865594;29;20049;-82
2022/05/10 07:49:52;;;;;;;3.83;1.40;;;22.50;40.60;;;;;;4897884;29;20466;-77
2022/05/10 07:52:20;;;;;;;2.00;1.20;;;22.50;40.50;;;;;;4884668;29;20525;-81
2022/05/10 07:54:47;;;;;;;5.70;1.25;;;22.30;40.70;;;;;;4885986;29;20087;-76
2022/05/10 07:57:14;;;;;;;2.95;1.10;;;22.00;41.30;;;;;;4880086;29;20064;-81
2022/05/10 07:59:42;;;;;;;3.03;0.93;;;21.80;41.20;;;;;;4886426;29;20578;-82
2022/05/10 08:02:11;;;;;;;3.17;1.23;;;21.80;41.70;;;;;;4883001;29;20048;-82
2022/05/10 08:04:39;;;;;;;2.08;1.38;;;22.00;40.90;;;;;;4885416;29;20045;-80
2022/05/10 08:07:07;;;;;;;5.55;2.28;;;21.70;41.10;;;;;;4883179;29;20076;-78
2022/05/10 08:09:34;;;;;;;6.18;1.67;;;21.40;41.50;;;;;;4881344;29;20053;-78
2022/05/10 08:12:01;;;;;;;3.42;1.35;;;21.60;41.00;;;;;;4864656;29;20121;-78
2022/05/10 08:14:29;;;;;;;2.35;1.33;;;21.70;40.80;;;;;;4864060;29;20048;-78
2022/05/10 08:16:57;;;;;;;4.53;1.20;;;21.60;41.20;;;;;;4877219;29;20046;-80
2022/05/10 08:19:24;;;;;;;3.88;1.40;;;21.80;41.80;;;;;;4874054;29;20057;-79
2022/05/10 08:21:58;;;;;;;4.45;1.25;;;21.90;41.20;;;;;;4874765;29;20057;-85
2022/05/10 08:24:25;;;;;;;2.42;1.08;;;22.70;41.60;;;;;;4883802;29;20533;-83
2022/05/10 08:26:53;;;;;;;6.88;1.85;;;23.40;40.00;;;;;;4879628;29;20057;-82
2022/05/10 08:29:26;;;;;;;3.53;1.55;;;23.90;39.40;;;;;;4884529;29;20140;-87
2022/05/10 08:31:53;;;;;;;5.15;1.40;;;24.40;39.30;;;;;;5028082;23;20094;-84
2022/05/10 08:34:22;;;;;;;2.85;1.30;;;24.70;39.10;;;;;;4937486;29;20086;-85
2022/05/10 08:36:49;;;;;;;3.42;1.50;;;24.40;37.80;;;;;;4937429;29;20044;-83
2022/05/10 08:39:18;;;;;;;5.20;1.30;;;24.00;38.20;;;;;;4934974;29;20504;-80
2022/05/10 08:41:52;;;;;;;4.07;1.02;;;23.90;39.20;;;;;;4925848;29;20044;-78
2022/05/10 08:44:25;;;;;;;5.28;1.95;;;24.40;39.60;;;;;;4926718;29;20137;-79
2022/05/10 08:46:56;;;;;;;6.53;1.83;;;25.30;37.60;;;;;;4932376;29;20051;-81
2022/05/10 08:49:29;;;;;;;1.42;1.30;;;26.00;36.50;;;;;;4936907;29;20050;-81
2022/05/10 08:51:58;;;;;;;1.45;1.10;;;26.60;35.70;;;;;;4937577;29;20146;-84
2022/05/10 08:54:28;;;;;;;11.93;1.60;;;27.20;34.90;;;;;;4922332;29;20107;-82
2022/05/10 08:56:58;;;;;;;2.65;0.85;;;27.50;34.30;;;;;;4937407;29;20046;-83
2022/05/10 08:59:33;;;;;;;3.05;1.10;;;27.20;34.40;;;;;;4937796;29;20047;-79
2022/05/10 09:02:04;;;;;;;2.70;1.08;;;27.10;34.50;;;;;;4931386;29;20051;-76
2022/05/10 09:04:48;;;;;;;4.45;1.33;;;27.30;34.20;;;;;;4936379;29;20525;-75
2022/05/10 09:07:27;;;;;;;3.65;1.30;;;27.60;35.00;;;;;;4917546;29;20416;-76
2022/05/10 09:10:02;;;;;;;3.47;1.48;;;27.70;34.00;;;;;;4932643;29;20054;-76
2022/05/10 09:12:40;;;;;;;5.75;1.30;;;27.60;33.60;;;;;;4937176;29;20099;-82
2022/05/10 09:15:10;;;;;;;2.33;1.10;;;27.60;34.10;;;;;;4938939;29;20050;-79
2022/05/10 09:17:39;;;;;;;4.40;1.10;;;27.60;34.30;;;;;;4937607;29;20058;-81
2022/05/10 09:20:10;;;;;;;5.47;2.22;;;27.30;34.30;;;;;;4936915;29;20047;-81
2022/05/10 09:22:49;;;;;;;2.33;1.08;;;27.10;34.80;;;;;;4930072;29;20055;-76
2022/05/10 09:25:34;;;;;;;2.75;0.93;;;27.10;34.60;;;;;;4935712;29;20046;-78
2022/05/10 09:28:10;;;;;;;3.03;1.55;;;26.90;34.60;;;;;;4936797;28;20565;-77
2022/05/10 09:30:38;;;;;;;2.90;1.20;;;27.00;34.60;;;;;;4934987;29;20051;-76
2022/05/10 09:36:11;;;;;;;3.05;1.10;;;27.90;34.20;;;;;;4922984;29;20134;-76
2022/05/10 09:38:45;;;;;;;2.90;1.08;;;28.10;34.20;;;;;;4917803;29;20048;-75
2022/05/10 09:41:27;;;;;;;8.05;1.60;;;28.50;34.00;;;;;;4916629;29;20052;-75
2022/05/10 09:43:55;;;;;;;2.35;1.17;;;28.60;34.10;;;;;;4919818;29;20063;-75
2022/05/10 09:46:27;;;;;;;5.75;1.00;;;28.20;33.40;;;;;;4927069;29;20087;-76
2022/05/10 09:48:55;;;;;;;2.80;1.42;;;28.20;33.90;;;;;;4940150;29;20055;-74
2022/05/10 09:51:36;;;;;;;1.27;1.17;;;28.30;33.60;;;;;;4943011;28;20402;-79
2022/05/10 09:54:05;;;;;;;2.25;1.42;;;28.50;33.40;;;;;;4935044;29;20055;-80
2022/05/10 09:56:40;;;;;;;5.00;1.73;;;28.70;34.10;;;;;;4936074;29;20056;-84
2022/05/10 09:59:29;;;;;;;4.13;1.30;;;28.90;33.30;;;;;;4941930;29;20493;-82
2022/05/10 10:01:58;;;;;;;1.80;1.17;;;29.30;33.80;;;;;;4935834;29;20052;-80
2022/05/10 10:04:31;;;;;;;3.42;1.25;;;29.10;34.10;;;;;;4937797;29;20077;-81
2022/05/10 10:07:13;;;;;;;2.40;1.05;;;29.20;33.60;;;;;;4937566;29;20051;-82
2022/05/10 10:09:44;;;;;;;6.30;1.70;;;29.40;33.60;;;;;;4939024;29;20112;-82
2022/05/10 10:12:17;;;;;;;5.13;1.33;;;29.20;33.60;;;;;;4937496;29;20148;-80
2022/05/10 10:14:50;;;;;;;3.17;1.20;;;29.50;32.50;;;;;;4939096;29;20071;-81
2022/05/10 10:17:23;;;;;;;3.35;1.13;;;29.50;32.30;;;;;;4938617;29;20055;-80
2022/05/10 10:19:54;;;;;;;4.50;1.65;;;29.50;33.80;;;;;;4938640;29;20052;-79
2022/05/10 10:22:29;;;;;;;3.20;1.10;;;29.50;32.50;;;;;;4938287;29;20504;-81
2022/05/10 10:25:02;;;;;;;3.00;1.20;;;29.60;32.80;;;;;;4937680;29;20063;-80
2022/05/10 10:27:35;;;;;;;5.18;1.15;;;29.70;32.50;;;;;;4939657;29;20139;-81
2022/05/10 10:30:07;;;;;;;3.70;1.15;;;30.00;33.00;;;;;;4936642;29;20056;-81
2022/05/10 10:32:40;;;;;;;1.60;1.02;;;30.10;33.00;;;;;;4936487;29;20065;-82
2022/05/10 10:35:16;;;;;;;2.90;1.10;;;30.20;32.20;;;;;;4938764;29;20048;-81
2022/05/10 10:37:49;;;;;;;4.30;1.70;;;30.40;32.80;;;;;;4936641;29;20064;-81
2022/05/10 10:40:30;;;;;;;2.72;1.30;;;30.40;32.50;;;;;;4937356;29;20067;-81
2022/05/10 10:43:07;;;;;;;1.48;1.00;;;30.40;32.40;;;;;;4938410;29;20079;-81
2022/05/10 10:45:41;;;;;;;5.85;1.30;;;30.50;32.30;;;;;;4936888;29;20066;-83
2022/05/10 10:48:25;;;;;;;3.20;1.15;;;30.70;32.30;;;;;;4937777;29;20052;-81
2022/05/10 10:50:53;;;;;;;5.97;1.13;;;30.70;32.50;;;;;;4936393;29;20051;-81
2022/05/10 10:53:21;;;;;;;3.53;1.58;;;30.90;33.20;;;;;;4937464;29;20147;-80
2022/05/10 10:56:02;;;;;;;4.18;1.23;;;31.00;32.10;;;;;;4936650;29;20552;-82
2022/05/10 10:58:44;;;;;;;5.20;1.30;;;31.20;32.10;;;;;;4936259;29;20051;-82
2022/05/10 11:01:25;;;;;;;7.25;1.17;;;31.40;33.40;;;;;;4937225;29;20086;-81
2022/05/10 11:04:02;;;;;;;3.08;1.38;;;31.30;31.10;;;;;;4935311;29;20051;-83
2022/05/10 11:06:34;;;;;;;2.05;1.20;;;31.00;31.90;;;;;;4935862;29;20052;-80
2022/05/10 11:09:13;;;;;;;2.63;1.02;;;30.90;31.70;;;;;;4938219;29;20058;-82
2022/05/10 11:11:57;;;;;;;1.92;1.25;;;30.90;31.90;;;;;;4934778;29;20055;-79
2022/05/10 11:14:44;;;;;;;2.45;1.30;;;31.10;32.40;;;;;;4938931;28;20107;-81
2022/05/10 11:17:21;;;;;;;5.93;1.20;;;31.10;31.20;;;;;;4933741;29;20431;-80
2022/05/10 11:20:10;;;;;;;2.05;1.20;;;30.80;31.30;;;;;;4934731;29;20051;-79
2022/05/10 11:22:39;;;;;;;2.08;1.38;;;30.90;31.70;;;;;;4933242;29;20044;-80
2022/05/10 11:25:23;;;;;;;2.63;1.30;;;31.30;31.50;;;;;;4933798;29;20107;-83
2022/05/10 11:28:29;;;;;;;1.60;0.90;;;31.50;31.30;;;;;;4934439;29;20591;-81
2022/05/10 11:31:08;;;;;;;1.85;1.27;;;31.50;31.80;;;;;;4908778;29;20575;-81
2022/05/10 11:33:45;;;;;;;4.63;1.45;;;31.70;31.50;;;;;;4935350;29;20154;-81
2022/05/10 11:36:35;;;;;;;4.75;1.10;;;31.70;31.30;;;;;;4936879;29;20127;-78
2022/05/10 11:39:32;;;;;;;2.42;1.25;;;31.80;31.80;;;;;;4935343;29;20156;-79
2022/05/10 11:42:18;;;;;;;2.20;1.20;;;32.10;30.30;;;;;;4933202;29;20048;-82
2022/05/10 11:45:18;;;;;;;5.13;1.70;;;32.40;30.60;;;;;;4934496;29;20607;-81
2022/05/10 11:48:30;;;;;;;1.20;1.10;;;32.80;30.90;;;;;;4934555;29;20442;-79
2022/05/10 11:51:41;;;;;;;5.43;1.27;;;32.90;31.50;;;;;;4915507;29;20138;-81
2022/05/10 11:54:49;;;;;;;2.70;0.82;;;32.50;30.50;;;;;;4933966;29;20052;-79
2022/05/10 11:57:19;;;;;;;4.60;1.20;;;32.30;30.40;;;;;;4934113;29;20054;-80
2022/05/10 11:59:48;;;;;;;4.47;1.30;;;32.50;30.10;;;;;;4934328;29;20489;-80
2022/05/10 12:02:45;;;;;;;3.22;1.10;;;32.70;30.60;;;;;;4934071;29;20062;-80
2022/05/10 12:05:32;;;;;;;1.92;1.63;;;32.70;30.50;;;;;;4934250;29;20059;-82
2022/05/10 12:08:01;;;;;;;4.85;1.30;;;32.70;29.70;;;;;;4934643;29;20055;-79
2022/05/10 12:10:40;;;;;;;2.28;1.30;;;32.80;30.50;;;;;;4934485;29;20556;-80
2022/05/10 12:13:12;;;;;;;1.48;1.10;;;32.80;29.90;;;;;;4934242;29;20074;-80
2022/05/10 12:22:01;;;;;;;2.95;1.20;;;33.20;29.20;;;;;;4934895;29;20471;-81
2022/05/10 12:24:34;;;;;;;4.85;2.75;;;32.80;29.20;;;;;;4934385;29;20048;-80
2022/05/10 12:27:35;;;;;;;3.50;1.10;;;32.50;29.40;;;;;;4934216;29;20048;-80
2022/05/10 12:30:31;;;;;;;2.40;1.25;;;32.50;29.20;;;;;;4917300;29;20082;-80
2022/05/10 12:33:19;;;;;;;1.75;0.95;;;32.50;29.60;;;;;;4935157;29;20044;-80
2022/05/10 12:36:26;;;;;;;3.45;1.35;;;32.50;29.60;;;;;;4936049;29;20063;-82
2022/05/10 12:38:55;;;;;;;2.95;1.33;;;32.70;29.30;;;;;;4937030;29;20079;-81
2022/05/10 12:41:49;;;;;;;2.88;0.93;;;33.00;29.20;;;;;;4943352;29;20075;-80
2022/05/10 12:44:49;;;;;;;1.13;1.02;;;33.30;28.50;;;;;;4937817;29;20062;-80
2022/05/10 12:47:52;;;;;;;2.03;1.08;;;33.00;28.60;;;;;;4941688;29;20051;-80
2022/05/10 12:50:45;;;;;;;7.00;1.30;;;32.90;29.00;;;;;;4938936;29;20044;-80
2022/05/10 12:53:25;;;;;;;5.93;1.50;;;32.90;29.00;;;;;;4927865;29;20058;-79
2022/05/10 12:56:04;;;;;;;4.15;1.20;;;33.10;29.40;;;;;;4938868;29;20119;-80
2022/05/10 12:58:35;;;;;;;4.75;1.00;;;33.00;29.20;;;;;;4939342;29;20055;-81
2022/05/10 13:01:06;;;;;;;2.80;1.52;;;33.10;29.50;;;;;;4921975;29;20142;-81
2022/05/10 13:03:37;;;;;;;6.65;1.60;;;33.10;29.30;;;;;;4938253;29;20457;-80
2022/05/10 13:06:18;;;;;;;3.08;1.00;;;33.00;29.50;;;;;;4939949;29;20051;-80
2022/05/10 13:09:29;;;;;;;2.75;1.10;;;33.00;28.80;;;;;;4939511;29;20060;-85
2022/05/10 13:12:05;;;;;;;2.63;1.63;;;33.10;28.60;;;;;;4939428;29;20055;-80
2022/05/10 13:14:37;;;;;;;4.97;1.13;;;33.10;29.10;;;;;;4937422;29;20051;-81
2022/05/10 13:17:05;;;;;;;7.53;2.28;;;33.30;29.30;;;;;;4938849;29;20068;-80
2022/05/10 13:19:37;;;;;;;2.95;1.20;;;33.50;28.60;;;;;;4940739;29;20488;-81
2022/05/10 13:22:08;;;;;;;;;;;33.90;28.70;;;;;;4944465;29;20115;-81
2022/05/10 13:24:42;;;;;;;2.90;1.23;;;33.70;28.60;;;;;;4939967;29;19978;-85
2022/05/10 13:27:21;;;;;;;6.30;1.25;;;33.30;28.50;;;;;;4938042;29;20055;-82
2022/05/10 13:29:49;;;;;;;3.47;1.50;;;33.20;28.90;;;;;;4940085;29;20051;-80
2022/05/10 13:32:29;;;;;;;3.22;1.42;;;33.10;28.80;;;;;;4941151;29;20059;-82
2022/05/10 13:35:04;;;;;;;3.58;1.52;;;33.30;29.30;;;;;;4942025;29;20135;-80
2022/05/10 13:37:33;;;;;;;4.55;1.80;;;33.50;28.90;;;;;;4939501;29;20055;-81